Tuesday, October 16, 2018, 11:55 PM GMT
Back to Local

CYSJ, Saint John, N. B.

Location: , , Canada Lat: 45.333
Local Time: 11:55 PM GMT (23:55 GMT) Lon: -65.883
Time Zone: GMT Elev: 337 ft

Show me the last for .
Show Decoded

2018-10-16 23:00 METAR CYSJ 162300Z 27011G21KT 15SM FEW040 07/M01 A2981 RMK SC1 SC TR SLP099 =
2018-10-16 22:00 METAR CYSJ 162200Z 28012G23KT 15SM FEW045 08/M02 A2977 RMK SC1 SC TR SLP087 =
2018-10-16 21:00 METAR CYSJ 162100Z 28014G21KT 15SM FEW045 10/M01 A2975 RMK SC1 SC TR SLP077 =
2018-10-16 20:00 METAR CYSJ 162000Z 27010G17KT 15SM FEW045 11/M00 A2973 RMK SC1 SLP072 =
2018-10-16 19:00 METAR CYSJ 161900Z 27016G24KT 15SM FEW045 11/M01 A2971 RMK SC2 SLP063 =
2018-10-16 18:00 METAR CYSJ 161800Z 26013G24KT 15SM SCT046 11/00 A2970 RMK SC3 SLP060 =
2018-10-16 17:00 METAR CYSJ 161700Z 28016G29KT 15SM SCT045 11/00 A2969 RMK SC4 SLP056 =
2018-10-16 16:00 METAR CYSJ 161600Z 28011G23KT 240V300 15SM BKN044 10/01 A2969 RMK SC6 SLP057 =
2018-10-16 15:00 METAR CYSJ 161500Z 26013G24KT 15SM BKN047 10/01 A2967 RMK SC7 SLP050 =
2018-10-16 14:00 METAR CYSJ 161400Z 28018G34KT 15SM BKN042 07/M00 A2964 RMK SC7 SLP041 =
2018-10-16 13:00 METAR CYSJ 161300Z 27019G33KT 230V290 15SM FEW025 BKN046 07/M00 A2962 RMK SC1SC5
                 SLP033 =
2018-10-16 12:00 METAR CYSJ 161200Z 26013G26KT 230V300 15SM FEW025 SCT040 06/M00 A2959 RMK SC2SC1
                 SLP023 =
2018-10-16 11:00 METAR CYSJ 161100Z 28017G30KT 15SM FEW025 SCT075 07/00 A2956 RMK SC2AC1 PRESRR
                 SLP015 =
2018-10-16 10:00 METAR CYSJ 161000Z 29014G22KT 15SM FEW038 SCT075 08/04 A2953 RMK SC2AC2 PRESRR
                 SLP002 =
2018-10-16 09:00 METAR CYSJ 160900Z 28015G27KT 8SM FEW003 SCT017 OVC042 10/08 A2948 RMK SF1SC2SC5
                 SLP986 DENSITY ALT 400FT =
2018-10-16 08:34 METAR CYSJ 160834Z 27023G36KT 5SM BR FEW003 BKN017 OVC048 12/10 A2944 RMK
                 SF2SC4SC2 PRESRR SLP973 DENSITY ALT 700FT =
2018-10-16 08:00 METAR CYSJ 160800Z 26007KT 4SM -SHRA BR SCT003 BKN048 OVC090 13/12 A2942 RMK
                 SF3SC3AC2 SLP966 DENSITY ALT 800FT =
2018-10-16 07:58 METAR CYSJ 160758Z 25008G15KT 4SM -SHRA BR SCT003 BKN048 OVC090 13/12 A2942 RMK
                 SF3SC3AC2 SLP964 DENSITY ALT 800FT =
2018-10-16 07:33 METAR CYSJ 160733Z 25010G18KT 240V310 3SM SHRA BR SCT003 OVC015 14/14 A2943 RMK
                 SF4SC4 SLP969 DENSITY ALT 1000FT =
2018-10-16 07:28 METAR CYSJ 160728Z 27009G21KT 240V310 3SM -SHRA BR BKN003 OVC015 15/14 A2942 RMK
                 SF6SC2 SLP965 DENSITY ALT 1000FT =
2018-10-16 07:15 METAR CYSJ 160715Z 24012G19KT 3SM SHRA BR OVC003 14/14 A2942 RMK SF8 SLP966
                 DENSITY ALT 1000FT =
2018-10-16 07:00 METAR CYSJ 160700Z 23012G18KT 2SM -SHRA BR OVC003 14/14 A2942 RMK SF8 SLP966
                 DENSITY ALT 1000FT =
2018-10-16 06:44 METAR CYSJ 160644Z 23016G23KT 2SM -SHRA BR OVC002 14/14 A2943 RMK SF8 SLP967
                 DENSITY ALT 1000FT =
2018-10-16 06:17 METAR CYSJ 160617Z 23016G24KT 1 1/2SM -SHRA BR OVC001 14/14 A2944 RMK SF8 VIS N
                 3/4 PRESFR SLP973 DENSITY ALT 1000FT =
2018-10-16 06:00 METAR CYSJ 160600Z 22018G26KT 2SM -SHRA BR OVC002 15/14 A2946 RMK SF8 PRESFR
                 SLP977 DENSITY ALT 1000FT =
2018-10-16 05:54 METAR CYSJ 160554Z 22018G26KT 2SM -SHRA BR OVC002 14/14 A2946 RMK SF8 PRESFR
                 SLP980 DENSITY ALT 900FT =
2018-10-16 05:00 METAR CYSJ 160500Z 22018G35KT 2SM -SHRA BR OVC003 14/14 A2951 RMK SF8 SLP997
                 DENSITY ALT 900FT =
2018-10-16 04:44 METAR CYSJ 160444Z 21021G33KT 2SM SHRA BR OVC004 14/14 A2953 RMK SF8 SLP001
                 DENSITY ALT 900FT =
2018-10-16 04:25 METAR CYSJ 160425Z 21022G37KT 2SM +SHRA BR BKN003 OVC009 14/14 A2953 RMK SF5SF3
                 CVCTV CLD EMBDD PRESFR SLP003 DENSITY ALT 800FT =
2018-10-16 04:00 METAR CYSJ 160400Z 19019G25KT 3SM SHRA BR BKN003 OVC006 13/13 A2956 RMK SF5SF3
                 CVCTV CLD EMBDD /R20/ SLP014 DENSITY ALT 700FT =
2018-10-16 03:52 METAR CYSJ 160352Z 19019G28KT 3SM SHRA BR OVC003 13/13 A2957 RMK SF8 CVCTV CLD
                 EMBDD PRESFR SLP015 DENSITY ALT 700FT =
2018-10-16 03:00 METAR CYSJ 160300Z 18018G25KT 3SM SHRA BR OVC006 12/12 A2964 RMK SF8 CVCTV CLD
                 EMBDD PRESFR SLP041 DENSITY ALT 500FT =
2018-10-16 02:54 METAR CYSJ 160254Z 18018G25KT 3SM SHRA BR OVC006 12/12 A2965 RMK SF8 CVCTV CLD
                 EMBDD PRESFR SLP043 DENSITY ALT 400FT =
2018-10-16 02:00 METAR CYSJ 160200Z 17017G23KT 3SM -SHRA BR FEW003 OVC006 11/11 A2973 RMK SF2SF6
                 CVCTV CLD EMBDD PRESFR SLP070 =
2018-10-16 01:48 METAR CYSJ 160148Z 16017G29KT 3SM SHRA BR OVC007 11/11 A2974 RMK SF8 CVCTV CLD
                 EMBDD SLP076 =
2018-10-16 01:21 METAR CYSJ 160121Z 16016G30KT 3SM -SHRA BR OVC006 11/11 A2975 RMK SF8 CIG RAG
                 PRESFR SLP080 =
2018-10-16 01:05 METAR CYSJ 160105Z 16020G26KT 3SM SHRA BR OVC005 11/10 A2978 RMK SF8 CIG RAG
                 PRESFR SLP089 =
2018-10-16 01:00 METAR CYSJ 160100Z 16018G26KT 3SM -SHRA BR OVC006 11/10 A2979 RMK SF8 CIG RAG
                 SLP091 =
2018-10-16 00:42 METAR CYSJ 160042Z 16018G25KT 3SM -SHRA BR OVC006 11/10 A2980 RMK SF8 CIG RAG
                 SLP097 =
2018-10-16 00:00 METAR CYSJ 160000Z CCA 16020G29KT 3SM SHRA BR BKN007 OVC016 10/10 A2984 RMK
                 SF7SC1 CIG RAG PRESFR SLP109 =

Support USWX by starting your Amazon purchase here.